Time;durP1;ratioP1;P1;durP2;ratioP2;P2;SDS_P1;SDS_P2;PMS_P1;PMS_P2;Temp;Humidity;BMP_temperature;BMP_pressure;BME280_temperature;BME280_humidity;BME280_pressure;Samples;Min_cycle;Max_cycle;Signal;HPM_P1;HPM_P2
2021/10/24 00:02:12;;;;;;;52.15;25.27;;;;;;;4.41;71.73;101527.16;1744740;82;20877;-76
2021/10/24 00:04:39;;;;;;;50.00;25.62;;;;;;;4.41;71.56;101522.81;1744595;82;21119;-76
2021/10/24 00:07:07;;;;;;;45.55;23.90;;;;;;;4.40;71.32;101524.13;1744435;82;20849;-77
2021/10/24 00:09:34;;;;;;;45.45;24.55;;;;;;;4.36;71.30;101522.06;1744450;82;20924;-77
2021/10/24 00:12:01;;;;;;;42.58;24.87;;;;;;;4.34;71.15;101526.42;1744781;82;20936;-77
2021/10/24 00:14:28;;;;;;;38.48;21.30;;;;;;;4.28;70.82;101523.94;1744526;82;20924;-78
2021/10/24 00:16:56;;;;;;;38.80;22.75;;;;;;;4.20;70.79;101526.66;1744600;81;21406;-76
2021/10/24 00:19:22;;;;;;;40.38;21.45;;;;;;;4.15;70.87;101525.45;1744541;80;20889;-76
2021/10/24 00:21:50;;;;;;;42.00;21.77;;;;;;;4.11;71.04;101530.73;1744462;82;20940;-77
2021/10/24 00:24:17;;;;;;;44.63;22.05;;;;;;;4.09;71.00;101534.68;1744624;82;21418;-77
2021/10/24 00:26:44;;;;;;;39.50;23.12;;;;;;;4.06;70.97;101528.67;1744843;82;20845;-76
2021/10/24 00:29:11;;;;;;;33.20;17.85;;;;;;;4.04;70.90;101524.80;1745079;82;21450;-77
2021/10/24 00:31:37;;;;;;;38.67;21.15;;;;;;;4.00;70.96;101526.19;1744650;81;20925;-76
2021/10/24 00:34:04;;;;;;;39.30;22.77;;;;;;;3.97;71.08;101528.40;1744852;82;20943;-77
2021/10/24 00:36:31;;;;;;;39.25;20.75;;;;;;;3.94;71.06;101524.13;1745123;82;21473;-77
2021/10/24 00:38:58;;;;;;;42.75;22.00;;;;;;;3.91;70.91;101520.30;1744657;82;21007;-76
2021/10/24 00:41:29;;;;;;;41.58;22.35;;;;;;;3.85;70.77;101517.80;1745309;81;22175;-77
2021/10/24 00:43:55;;;;;;;36.83;19.85;;;;;;;3.81;70.71;101515.30;1757784;81;20943;-77
2021/10/24 00:46:22;;;;;;;42.43;21.27;;;;;;;3.74;70.67;101521.87;1758182;81;20939;-78
2021/10/24 00:48:49;;;;;;;44.27;20.85;;;;;;;3.69;70.84;101528.01;1758156;81;21529;-77
2021/10/24 00:51:16;;;;;;;39.88;21.12;;;;;;;3.62;70.97;101522.07;1757911;81;21066;-76
2021/10/24 00:53:44;;;;;;;35.35;19.05;;;;;;;3.58;71.08;101529.93;1758019;81;21038;-76
2021/10/24 00:56:10;;;;;;;33.83;20.15;;;;;;;3.54;71.08;101531.73;1757951;81;20960;-76
2021/10/24 00:58:38;;;;;;;74.77;22.60;;;;;;;3.51;71.02;101536.53;1758122;81;20924;-77
2021/10/24 01:01:04;;;;;;;48.10;20.92;;;;;;;3.49;70.96;101530.52;1757932;81;21426;-76
2021/10/24 01:03:31;;;;;;;34.45;18.25;;;;;;;3.46;70.75;101530.99;1758010;81;20979;-77
2021/10/24 01:06:00;;;;;;;40.52;18.87;;;;;;;3.41;70.67;101532.81;1758024;81;21539;-77
2021/10/24 01:08:27;;;;;;;30.70;17.98;;;;;;;3.36;70.76;101536.77;1757996;81;20908;-78
2021/10/24 01:10:54;;;;;;;27.32;16.60;;;;;;;3.31;70.88;101532.95;1757977;81;21467;-77
2021/10/24 01:13:23;;;;;;;26.93;16.25;;;;;;;3.27;70.92;101531.73;1758043;80;21477;-78
2021/10/24 01:15:50;;;;;;;32.98;19.50;;;;;;;3.23;71.20;101526.17;1758072;81;20919;-77
2021/10/24 01:18:17;;;;;;;35.48;18.20;;;;;;;3.20;71.39;101527.49;1757864;81;21130;-76
2021/10/24 01:20:44;;;;;;;31.82;15.32;;;;;;;3.18;71.52;101518.88;1758521;81;20928;-76
2021/10/24 01:23:10;;;;;;;25.00;14.38;;;;;;;3.16;71.83;101524.52;1758582;81;21386;-76
2021/10/24 01:25:39;;;;;;;27.20;15.13;;;;;;;3.16;72.15;101521.52;1757917;81;21014;-76
2021/10/24 01:28:08;;;;;;;35.70;18.77;;;;;;;3.17;72.36;101519.33;1758069;80;20876;-76
2021/10/24 01:30:35;;;;;;;33.88;17.23;;;;;;;3.20;72.61;101526.20;1740223;81;21985;-77
2021/10/24 01:33:01;;;;;;;34.50;17.70;;;;;;;3.23;72.62;101523.58;1757816;81;20971;-76
2021/10/24 01:35:30;;;;;;;28.87;17.80;;;;;;;3.27;72.42;101527.84;1757915;81;20975;-76
2021/10/24 01:37:58;;;;;;;32.98;18.90;;;;;;;3.28;72.08;101530.84;1758002;81;20987;-75
2021/10/24 01:40:25;;;;;;;32.20;18.45;;;;;;;3.27;71.76;101533.88;1758019;81;20861;-76
2021/10/24 01:42:55;;;;;;;35.50;17.77;;;;;;;3.22;71.38;101533.06;1757970;80;21509;-76
2021/10/24 01:45:26;;;;;;;27.95;16.37;;;;;;;3.18;71.25;101530.55;1757845;81;20880;-74
2021/10/24 01:47:55;;;;;;;27.45;17.25;;;;;;;3.11;71.17;101532.37;1757411;81;21378;-76
2021/10/24 01:50:22;;;;;;;28.35;17.25;;;;;;;3.05;71.19;101533.77;1757873;80;20991;-75
2021/10/24 01:52:49;;;;;;;29.48;17.12;;;;;;;3.00;71.32;101544.20;1757860;81;20912;-75
2021/10/24 01:55:18;;;;;;;31.80;16.70;;;;;;;2.97;71.49;101548.56;1758102;81;22006;-76
2021/10/24 01:57:50;;;;;;;26.33;15.30;;;;;;;2.93;71.52;101548.18;1757758;81;20912;-76
2021/10/24 02:00:17;;;;;;;29.70;17.65;;;;;;;2.89;71.50;101547.34;1758284;81;20904;-76
2021/10/24 02:02:45;;;;;;;37.17;20.65;;;;;;;2.85;71.57;101547.00;1758011;81;21406;-75
2021/10/24 02:05:22;;;;;;;38.10;22.07;;;;;;;2.82;71.63;101539.25;1755501;81;20944;-76
2021/10/24 02:07:49;;;;;;;32.33;17.75;;;;;;;2.76;71.53;101541.50;1757894;81;21140;-76
2021/10/24 02:10:17;;;;;;;46.05;26.68;;;;;;;2.68;71.65;101535.55;1758144;81;20873;-76
2021/10/24 02:12:45;;;;;;;33.38;17.12;;;;;;;2.60;71.55;101536.06;1757952;80;20884;-75
2021/10/24 02:15:13;;;;;;;113.17;65.62;;;;;;;2.55;71.53;101536.57;1757823;81;20924;-76
2021/10/24 02:17:42;;;;;;;115.10;61.25;;;;;;;2.46;71.61;101537.09;1758004;81;20932;-76
2021/10/24 02:20:09;;;;;;;32.98;20.45;;;;;;;2.42;71.93;101530.67;1758160;81;21051;-76
2021/10/24 02:22:38;;;;;;;41.88;21.57;;;;;;;2.40;72.37;101538.48;1757800;81;21418;-76
2021/10/24 02:25:08;;;;;;;29.18;16.30;;;;;;;2.40;72.43;101540.19;1757467;81;21315;-75
2021/10/24 02:27:35;;;;;;;44.83;24.10;;;;;;;2.40;72.40;101542.36;1758153;81;20901;-74
2021/10/24 02:30:03;;;;;;;27.42;16.90;;;;;;;2.38;72.15;101543.22;1757996;81;20884;-77
2021/10/24 02:32:34;;;;;;;29.05;16.23;;;;;;;2.36;72.03;101540.67;1758244;81;21326;-76
2021/10/24 02:35:06;;;;;;;28.15;16.32;;;;;;;2.34;71.92;101546.75;1758084;81;21295;-76
2021/10/24 02:37:35;;;;;;;36.00;19.12;;;;;;;2.28;71.93;101547.22;1756928;81;21378;-75
2021/10/24 02:40:05;;;;;;;48.25;22.58;;;;;;;2.24;72.05;101545.97;1758494;81;20936;-75
2021/10/24 02:42:36;;;;;;;52.30;27.30;;;;;;;2.17;72.14;101549.50;1755219;81;20841;-75
2021/10/24 02:45:05;;;;;;;43.90;20.80;;;;;;;2.10;72.38;101545.27;1744564;82;21169;-76
2021/10/24 02:47:33;;;;;;;49.67;19.65;;;;;;;2.06;72.45;101544.43;1744811;81;20905;-74
2021/10/24 02:50:00;;;;;;;31.42;17.07;;;;;;;2.03;72.70;101541.44;1744669;81;20972;-75
2021/10/24 02:52:27;;;;;;;34.15;19.12;;;;;;;2.03;72.92;101542.73;1744533;82;20893;-74
2021/10/24 02:54:55;;;;;;;37.05;20.62;;;;;;;2.04;73.07;101547.02;1744475;82;20886;-75
2021/10/24 02:57:22;;;;;;;39.73;20.57;;;;;;;2.05;73.09;101547.46;1744580;82;21973;-75
2021/10/24 02:59:51;;;;;;;43.45;21.37;;;;;;;2.02;72.74;101547.50;1744504;82;21005;-75
2021/10/24 03:02:19;;;;;;;41.98;18.45;;;;;;;1.97;72.93;101542.79;1744442;82;20936;-76
2021/10/24 03:04:45;;;;;;;38.40;18.20;;;;;;;1.96;72.90;101538.50;1744622;81;20936;-76
2021/10/24 03:07:14;;;;;;;35.92;15.98;;;;;;;1.96;72.79;101543.67;1744522;80;21386;-76
2021/10/24 03:09:42;;;;;;;29.25;14.63;;;;;;;1.95;72.72;101547.11;1744549;81;21135;-76
2021/10/24 03:12:11;;;;;;;29.70;15.40;;;;;;;1.93;72.66;101540.25;1744671;81;20969;-77
2021/10/24 03:14:40;;;;;;;31.17;16.42;;;;;;;1.90;72.75;101545.02;1744702;82;20937;-77
2021/10/24 03:17:07;;;;;;;29.00;17.27;;;;;;;1.91;72.94;101545.87;1744699;81;21403;-77
2021/10/24 03:19:36;;;;;;;35.23;18.85;;;;;;;1.90;72.99;101548.89;1744482;81;21485;-76
2021/10/24 03:22:04;;;;;;;34.23;18.62;;;;;;;1.89;72.89;101547.61;1744399;82;21026;-76
2021/10/24 03:24:31;;;;;;;34.05;18.62;;;;;;;1.86;72.92;101549.34;1733942;82;21024;-77
2021/10/24 03:26:59;;;;;;;36.73;17.87;;;;;;;1.85;72.88;101554.11;1744556;82;20977;-76
2021/10/24 03:29:26;;;;;;;35.45;17.57;;;;;;;1.85;72.87;101553.27;1744442;80;20919;-76
2021/10/24 03:31:53;;;;;;;30.45;16.17;;;;;;;1.81;72.87;101556.74;1744528;82;20925;-77
2021/10/24 03:34:20;;;;;;;24.00;14.58;;;;;;;1.77;72.91;101558.48;1744961;82;21508;-77
2021/10/24 03:36:47;;;;;;;27.82;15.55;;;;;;;1.72;73.07;101555.53;1744395;82;20913;-77
2021/10/24 03:39:14;;;;;;;34.20;16.10;;;;;;;1.69;73.36;101560.70;1744901;82;20936;-77
2021/10/24 03:41:40;;;;;;;25.80;15.65;;;;;;;;;;1744688;80;21434;-77
2021/10/24 03:44:09;;;;;;;25.80;15.05;;;;;;;1.70;73.92;101563.73;1754608;81;21552;-77
2021/10/24 03:46:36;;;;;;;30.88;18.55;;;;;;;1.73;73.98;101563.70;1758201;80;21508;-76
2021/10/24 03:49:04;;;;;;;32.13;17.10;;;;;;;1.74;74.08;101570.60;1757749;81;20844;-76
2021/10/24 03:51:32;;;;;;;26.17;13.78;;;;;;;1.75;74.11;101577.47;1757889;81;20935;-78
2021/10/24 03:53:59;;;;;;;27.07;14.23;;;;;;;1.76;73.99;101583.08;1757921;80;21002;-76
2021/10/24 03:56:26;;;;;;;27.58;15.93;;;;;;;1.76;73.85;101591.69;1757935;80;20861;-76
2021/10/24 03:58:54;;;;;;;25.35;14.93;;;;;;;1.75;73.79;101586.08;1757895;81;21932;-78
2021/10/24 04:01:21;;;;;;;25.88;16.10;;;;;;;1.73;73.69;101587.81;1758103;80;20924;-76
2021/10/24 04:03:48;;;;;;;28.23;17.70;;;;;;;1.71;73.58;101586.12;1757836;81;20940;-77
2021/10/24 04:06:15;;;;;;;27.22;13.88;;;;;;;1.66;73.84;101590.88;1758431;81;20897;-76
2021/10/24 04:08:43;;;;;;;30.75;14.25;;;;;;;1.67;74.11;101591.77;1758037;81;20955;-77
2021/10/24 04:11:10;;;;;;;29.20;15.78;;;;;;;1.70;74.16;101594.31;1758089;80;21518;-77
2021/10/24 04:13:38;;;;;;;31.85;18.17;;;;;;;1.72;74.21;101599.48;1757935;81;20972;-78
2021/10/24 04:16:05;;;;;;;34.88;17.00;;;;;;;1.74;74.11;101601.62;1758057;81;20849;-77
2021/10/24 04:18:51;;;;;;;32.23;16.77;;;;;;;1.76;73.91;101601.19;1758094;81;20932;-75
2021/10/24 04:21:18;;;;;;;35.38;16.95;;;;;;;1.76;73.83;101612.38;1758216;81;20932;-77
2021/10/24 04:23:45;;;;;;;35.43;19.73;;;;;;;1.75;73.86;101603.33;1757984;81;21131;-77
2021/10/24 04:26:11;;;;;;;34.80;17.42;;;;;;;1.74;73.94;101605.51;1758212;81;20975;-77
2021/10/24 04:28:38;;;;;;;40.35;23.20;;;;;;;1.69;73.77;101602.95;1758085;81;20884;-76
2021/10/24 04:31:05;;;;;;;37.25;20.85;;;;;;;1.68;74.02;101603.81;1758162;81;20935;-77
2021/10/24 04:33:32;;;;;;;37.65;21.15;;;;;;;1.68;74.21;101602.52;1758121;81;20928;-77
2021/10/24 04:35:59;;;;;;;36.68;20.45;;;;;;;1.74;74.53;101604.22;1758201;80;21158;-76
2021/10/24 04:38:29;;;;;;;41.63;20.10;;;;;;;1.79;74.71;101608.91;1758008;80;20888;-78
2021/10/24 04:40:56;;;;;;;47.33;22.40;;;;;;;1.85;74.71;101609.72;1758272;80;21468;-77
2021/10/24 04:43:23;;;;;;;70.28;34.75;;;;;;;1.92;74.69;101611.82;1757992;81;20896;-76
2021/10/24 04:45:50;;;;;;;48.45;22.77;;;;;;;1.99;74.88;101613.92;1757996;81;20884;-75
2021/10/24 04:48:18;;;;;;;51.15;28.67;;;;;;;2.08;75.07;101614.69;1758083;81;22120;-76
2021/10/24 04:50:47;;;;;;;43.05;25.75;;;;;;;2.18;74.72;101612.89;1757862;81;20920;-75
2021/10/24 04:53:15;;;;;;;76.10;41.88;;;;;;;2.25;74.26;101621.45;1757912;81;20857;-77
2021/10/24 04:55:45;;;;;;;57.60;31.15;;;;;;;2.28;73.95;101619.67;1757813;80;20904;-77
2021/10/24 04:58:12;;;;;;;59.13;32.38;;;;;;;2.33;73.95;101621.38;1757962;80;21515;-75
2021/10/24 05:00:40;;;;;;;54.20;31.15;;;;;;;2.36;73.98;101624.80;1757980;81;20988;-75
2021/10/24 05:03:07;;;;;;;61.95;31.27;;;;;;;2.43;73.91;101619.97;1757840;81;20853;-76
2021/10/24 05:05:36;;;;;;;57.80;34.85;;;;;;;2.53;73.93;101630.23;1757918;80;20994;-76
2021/10/24 05:08:04;;;;;;;50.98;29.85;;;;;;;2.60;73.96;101630.17;1757910;80;20947;-77
2021/10/24 05:10:31;;;;;;;49.13;30.20;;;;;;;2.68;73.86;101643.02;1757868;81;20983;-76
2021/10/24 05:12:58;;;;;;;49.73;31.95;;;;;;;2.73;73.67;101645.55;1757866;81;21127;-75
2021/10/24 05:15:26;;;;;;;66.62;38.48;;;;;;;2.78;73.54;101645.05;1757796;81;20978;-77
2021/10/24 05:17:53;;;;;;;63.02;37.15;;;;;;;2.82;73.37;101650.19;1757946;80;20888;-78
2021/10/24 05:20:20;;;;;;;73.17;40.08;;;;;;;2.84;73.20;101651.47;1757809;81;20912;-76
2021/10/24 05:22:48;;;;;;;64.80;34.83;;;;;;;2.86;73.37;101651.87;1758009;81;21358;-75
2021/10/24 05:25:15;;;;;;;57.60;31.65;;;;;;;2.93;73.74;101656.55;1757900;80;21544;-76
2021/10/24 05:27:43;;;;;;;65.28;32.88;;;;;;;3.04;73.74;101658.56;1757682;80;20939;-77
2021/10/24 05:30:10;;;;;;;58.87;33.28;;;;;;;3.16;73.76;101657.58;1758157;81;20900;-77
2021/10/24 05:32:37;;;;;;;63.20;33.28;;;;;;;3.32;73.75;101658.23;1757844;81;20944;-76
2021/10/24 05:35:06;;;;;;;58.02;30.90;;;;;;;3.48;73.54;101657.14;1758103;81;20873;-76
2021/10/24 05:37:33;;;;;;;58.20;30.80;;;;;;;3.63;73.14;101664.30;1757828;81;21983;-76
2021/10/24 05:40:00;;;;;;;59.15;32.98;;;;;;;3.74;72.82;101659.81;1758065;81;20896;-75
2021/10/24 05:42:44;;;;;;;52.70;31.07;;;;;;;3.81;72.40;101667.06;1757214;81;20917;-76
2021/10/24 05:45:12;;;;;;;59.15;30.80;;;;;;;3.84;72.10;101667.86;1757823;80;20979;-77
2021/10/24 05:47:39;;;;;;;57.35;33.05;;;;;;;3.89;71.87;101666.48;1758004;80;20857;-76
2021/10/24 05:50:08;;;;;;;58.33;33.00;;;;;;;3.95;71.82;101675.03;1757547;81;21528;-78
2021/10/24 05:52:36;;;;;;;67.15;33.45;;;;;;;4.04;71.76;101671.44;1757941;81;20878;-77
2021/10/24 05:55:07;;;;;;;54.63;31.25;;;;;;;4.14;71.81;101679.51;1758216;81;20924;-77
2021/10/24 05:57:34;;;;;;;60.58;31.70;;;;;;;4.28;71.87;101680.58;1757939;81;20912;-76
2021/10/24 06:00:07;;;;;;;69.17;31.17;;;;;;;4.57;71.97;101680.52;1734621;80;20900;-78
2021/10/24 06:02:35;;;;;;;72.45;34.03;;;;;;;5.06;72.33;101682.62;1756559;80;21156;-76
2021/10/24 06:05:21;;;;;;;68.00;33.90;;;;;;;5.46;71.36;101681.35;1758141;81;20956;-76
2021/10/24 06:07:49;;;;;;;64.15;34.15;;;;;;;5.79;70.15;101688.86;1757789;80;21623;-76
2021/10/24 06:10:17;;;;;;;60.50;33.13;;;;;;;6.07;69.66;101684.35;1757842;81;20951;-75
2021/10/24 06:12:51;;;;;;;52.88;31.50;;;;;;;6.52;69.74;101680.63;1757872;81;20884;-76
2021/10/24 06:15:16;;;;;;;55.90;29.20;;;;;;;6.91;68.96;101689.11;1757592;81;21138;-77
2021/10/24 06:17:46;;;;;;;39.42;23.20;;;;;;;7.22;67.84;101682.58;1757917;81;20876;-77
2021/10/24 06:20:13;;;;;;;44.30;25.20;;;;;;;7.46;66.72;101681.47;1758236;80;20928;-77
2021/10/24 06:22:40;;;;;;;35.20;21.62;;;;;;;7.67;65.51;101683.90;1757762;81;20936;-77
2021/10/24 06:25:10;;;;;;;35.28;20.00;;;;;;;7.83;64.60;101675.13;1758329;81;20916;-77
2021/10/24 06:27:41;;;;;;;39.95;19.65;;;;;;;7.96;64.00;101678.19;1757828;80;21146;-77
2021/10/24 06:30:12;;;;;;;25.77;17.17;;;;;;;8.06;63.35;101673.08;1758035;81;20991;-76
2021/10/24 06:32:41;;;;;;;40.83;20.50;;;;;;;8.12;62.77;101676.80;1712135;80;21520;-78
2021/10/24 06:35:27;;;;;;;39.08;18.27;;;;;;;8.14;62.67;101668.89;1757909;80;20928;-77
2021/10/24 06:37:56;;;;;;;31.68;16.10;;;;;;;8.18;62.57;101677.92;1731100;81;21437;-79
2021/10/24 06:40:23;;;;;;;32.23;18.42;;;;;;;8.24;62.52;101682.07;1757802;80;21527;-79
2021/10/24 06:42:52;;;;;;;35.10;17.05;;;;;;;8.34;62.52;101678.69;1757464;81;20924;-78
2021/10/24 06:45:37;;;;;;;30.65;13.35;;;;;;;8.52;62.71;101676.81;1745017;81;21347;-77
2021/10/24 06:48:22;;;;;;;21.10;11.68;;;;;;;8.84;62.77;101683.51;1744567;80;20980;-77
2021/10/24 06:51:05;;;;;;;20.60;11.73;;;;;;;9.13;61.84;101678.52;1744391;81;20854;-77
2021/10/24 06:53:36;;;;;;;26.70;11.75;;;;;;;9.37;61.06;101683.77;1701899;81;21151;-77
2021/10/24 06:56:21;;;;;;;18.10;9.25;;;;;;;9.53;60.54;101693.19;1744498;82;21450;-79
2021/10/24 06:59:07;;;;;;;22.42;9.63;;;;;;;9.68;60.01;101700.92;1744630;82;20916;-76
2021/10/24 07:01:38;;;;;;;18.07;10.15;;;;;;;9.82;59.31;101699.06;1735507;82;20905;-78
2021/10/24 07:04:12;;;;;;;24.47;9.98;;;;;;;9.92;58.63;101703.04;1701653;81;20960;-76
2021/10/24 07:06:41;;;;;;;19.12;9.28;;;;;;;10.00;58.42;101697.48;1743937;81;21166;-79
2021/10/24 07:09:25;;;;;;;19.07;10.13;;;;;;;10.03;57.73;101696.06;1709130;82;20927;-80
2021/10/24 07:11:52;;;;;;;18.17;8.73;;;;;;;10.03;57.49;101704.77;1744778;80;20909;-85
2021/10/24 07:14:19;;;;;;;15.00;9.08;;;;;;;10.05;57.32;101707.31;1744808;82;21265;-74
2021/10/24 07:16:48;;;;;;;14.23;8.45;;;;;;;10.05;57.12;101712.13;1744676;82;20924;-76
2021/10/24 07:19:15;;;;;;;15.50;8.25;;;;;;;10.05;57.15;101707.31;1744547;82;21981;-75
2021/10/24 07:21:44;;;;;;;12.70;7.83;;;;;;;10.05;57.13;101705.56;1744423;81;21311;-77
2021/10/24 07:24:13;;;;;;;14.33;7.50;;;;;;;10.04;56.85;101701.22;1707278;82;21371;-76
2021/10/24 07:26:41;;;;;;;19.67;8.98;;;;;;;10.01;56.59;101707.91;1708724;82;20932;-78
2021/10/24 07:29:10;;;;;;;15.78;8.48;;;;;;;9.93;56.49;101696.88;1744444;81;20893;-77
2021/10/24 07:31:37;;;;;;;14.65;9.28;;;;;;;9.90;56.65;101699.62;1744709;81;21802;-77
2021/10/24 07:34:24;;;;;;;11.48;7.53;;;;;;;9.85;56.85;101698.50;1705950;84;20951;-76
2021/10/24 07:36:51;;;;;;;11.28;7.60;;;;;;;9.78;56.93;101693.55;1708797;84;20932;-78
2021/10/24 07:39:18;;;;;;;15.60;8.48;;;;;;;9.75;57.00;101690.13;1708726;84;21427;-76
2021/10/24 07:41:46;;;;;;;10.40;7.65;;;;;;;9.74;57.14;101691.53;1709360;84;20896;-76
2021/10/24 07:44:15;;;;;;;14.33;8.40;;;;;;;9.71;57.10;101683.30;1711235;83;21516;-75
2021/10/24 07:46:42;;;;;;;13.40;7.85;;;;;;;9.70;57.08;101678.99;1716315;83;20978;-75
2021/10/24 07:49:11;;;;;;;19.70;8.58;;;;;;;9.66;57.05;101674.78;1716299;82;21369;-77
2021/10/24 07:51:39;;;;;;;15.80;7.55;;;;;;;9.64;57.04;101678.38;1716294;83;21632;-77
2021/10/24 07:54:07;;;;;;;13.08;6.25;;;;;;;9.64;57.11;101681.84;1716397;83;21544;-77
2021/10/24 07:58:37;;;;;;;10.65;7.28;;;;;;;9.69;56.41;101675.11;1884108;75;22177;-76
2021/10/24 08:01:05;;;;;;;10.15;6.35;;;;;;;9.64;56.45;101677.92;1860873;77;20844;-75
2021/10/24 08:03:33;;;;;;;14.23;7.00;;;;;;;9.66;56.41;101677.40;1829846;77;21161;-76
2021/10/24 08:06:01;;;;;;;11.63;6.58;;;;;;;9.67;55.96;101679.12;1860708;76;21503;-76
2021/10/24 08:08:28;;;;;;;11.15;7.42;;;;;;;9.82;56.05;101683.35;1861001;77;20930;-78
2021/10/24 08:10:55;;;;;;;12.70;6.87;;;;;;;10.28;55.91;101680.17;1860737;76;20930;-79
2021/10/24 08:13:24;;;;;;;12.35;6.55;;;;;;;11.02;54.75;101677.86;1860799;77;20863;-76
2021/10/24 08:15:52;;;;;;;10.70;7.03;;;;;;;11.96;52.80;101671.76;1860926;77;21127;-73
2021/10/24 08:18:19;;;;;;;13.32;5.90;;;;;;;12.98;50.85;101682.37;1860775;77;20962;-75
2021/10/24 08:20:55;;;;;;;9.70;6.22;;;;;;;14.00;48.45;101673.23;1860651;77;21309;-74
2021/10/24 08:23:23;;;;;;;8.90;5.60;;;;;;;15.03;46.25;101674.20;1860553;76;20883;-74
2021/10/24 08:25:50;;;;;;;10.32;5.85;;;;;;;15.86;43.90;101676.92;1860831;77;21444;-74
2021/10/24 08:28:17;;;;;;;10.90;5.47;;;;;;;16.62;41.95;101664.78;1860591;77;21795;-76
2021/10/24 08:31:04;;;;;;;11.90;5.40;;;;;;;17.30;39.90;101672.86;1775381;77;20907;-78
2021/10/24 08:33:43;;;;;;;7.15;4.85;;;;;;;17.96;38.50;101662.75;1860656;77;20954;-81
2021/10/24 08:36:10;;;;;;;10.32;4.90;;;;;;;18.62;37.66;101664.39;1860875;76;21427;-77
2021/10/24 08:38:38;;;;;;;8.68;4.37;;;;;;;19.28;36.17;101667.20;1860706;76;20902;-76
2021/10/24 08:41:05;;;;;;;12.18;5.62;;;;;;;19.80;34.39;101657.66;1861003;77;21797;-77
2021/10/24 08:43:35;;;;;;;10.23;4.80;;;;;;;20.12;33.32;101663.48;1860772;77;21459;-76
2021/10/24 08:46:02;;;;;;;10.03;4.15;;;;;;;20.17;32.60;101666.59;1860977;77;21393;-77
2021/10/24 08:48:33;;;;;;;7.05;4.33;;;;;;;20.07;32.82;101669.66;1860524;76;20997;-76
2021/10/24 08:50:59;;;;;;;12.00;4.47;;;;;;;19.85;33.01;101669.26;1860472;77;21349;-76
2021/10/24 08:53:27;;;;;;;9.15;5.12;;;;;;;19.54;32.85;101670.89;1860580;76;21110;-76
2021/10/24 08:55:54;;;;;;;10.30;4.45;;;;;;;19.11;33.52;101664.55;1860487;76;20911;-76
2021/10/24 08:58:21;;;;;;;7.90;4.20;;;;;;;18.74;34.37;101662.58;1859543;75;20927;-76
2021/10/24 09:00:50;;;;;;;9.35;5.80;;;;;;;18.45;34.40;101655.05;1861217;77;20870;-77
2021/10/24 09:03:17;;;;;;;13.48;5.90;;;;;;;18.27;34.52;101663.11;1860701;77;20835;-76
2021/10/24 09:05:47;;;;;;;8.70;5.37;;;;;;;18.04;34.97;101662.20;1861015;76;21714;-78
2021/10/24 09:08:22;;;;;;;8.23;5.22;;;;;;;17.73;35.10;101657.31;1860452;77;21460;-76
2021/10/24 09:10:57;;;;;;;9.60;5.20;;;;;;;17.42;35.74;101652.56;1860553;77;21001;-76
2021/10/24 09:13:32;;;;;;;8.83;5.05;;;;;;;17.24;36.27;101656.91;1860000;77;20926;-77
2021/10/24 09:16:07;;;;;;;6.60;5.20;;;;;;;17.14;36.38;101655.40;1860374;76;21349;-76
2021/10/24 09:18:40;;;;;;;8.98;5.90;;;;;;;16.91;36.69;101650.38;1859824;77;21185;-77
2021/10/24 09:21:22;;;;;;;12.03;6.35;;;;;;;16.73;36.75;101646.34;1860292;77;20872;-77
2021/10/24 09:24:10;;;;;;;7.87;5.47;;;;;;;16.77;37.24;101651.32;1859871;77;20957;-77
2021/10/24 09:26:39;;;;;;;9.33;6.55;;;;;;;16.87;37.18;101650.70;1859842;77;21092;-75
2021/10/24 09:29:12;;;;;;;12.10;6.80;;;;;;;16.83;36.90;101644.80;1860084;77;20843;-77
2021/10/24 09:31:43;;;;;;;12.43;6.70;;;;;;;16.68;36.80;101651.13;1860102;77;21128;-75
2021/10/24 09:34:25;;;;;;;10.80;5.70;;;;;;;16.50;36.81;101646.63;1860187;77;20967;-76
2021/10/24 09:36:57;;;;;;;12.98;7.87;;;;;;;16.31;36.96;101639.08;1854939;77;20935;-74
2021/10/24 09:39:27;;;;;;;10.93;5.12;;;;;;;16.11;37.13;101641.73;1829361;77;21006;-75
2021/10/24 09:42:26;;;;;;;9.53;6.03;;;;;;;15.92;37.58;101640.81;1860294;77;20954;-76
2021/10/24 09:45:07;;;;;;;12.53;5.62;;;;;;;15.73;38.05;101638.52;1860198;76;21162;-76
2021/10/24 09:47:44;;;;;;;8.85;5.78;;;;;;;15.52;38.44;101644.70;1859854;77;21423;-77
2021/10/24 09:50:33;;;;;;;8.73;5.08;;;;;;;15.38;38.75;101649.53;1860265;77;20855;-79
2021/10/24 09:53:26;;;;;;;10.80;5.58;;;;;;;15.25;38.96;101652.12;1860225;77;20923;-78
2021/10/24 09:56:01;;;;;;;7.85;4.90;;;;;;;15.06;39.62;101644.97;1860002;76;20887;-78
2021/10/24 09:58:35;;;;;;;8.35;5.70;;;;;;;14.96;39.90;101637.23;1826311;78;21782;-74
2021/10/24 10:01:04;;;;;;;7.95;4.37;;;;;;;14.90;39.76;101643.76;1826281;78;20927;-78
2021/10/24 10:03:33;;;;;;;7.53;4.40;;;;;;;14.89;39.66;101635.44;1826681;78;21392;-77
2021/10/24 10:06:00;;;;;;;10.80;5.53;;;;;;;14.93;39.52;101627.70;1826326;78;20899;-76
2021/10/24 10:08:31;;;;;;;10.65;5.15;;;;;;;14.93;39.52;101627.70;1826208;78;21001;-74
2021/10/24 10:11:09;;;;;;;9.65;5.22;;;;;;;15.05;40.02;101632.23;1826439;78;21983;-77
2021/10/24 10:13:42;;;;;;;11.38;5.22;;;;;;;15.10;39.82;101624.87;1826171;78;20898;-77
2021/10/24 10:16:14;;;;;;;10.98;5.10;;;;;;;15.10;39.82;101624.87;1826569;78;21333;-76
2021/10/24 10:19:02;;;;;;;6.45;3.98;;;;;;;15.01;39.94;101630.73;1826550;78;20835;-77
2021/10/24 10:21:31;;;;;;;12.55;5.03;;;;;;;14.86;39.74;101621.95;1826238;78;20898;-78
2021/10/24 10:24:01;;;;;;;7.05;4.65;;;;;;;14.75;39.89;101616.97;1826359;78;21746;-77
2021/10/24 10:26:43;;;;;;;12.45;4.90;;;;;;;14.71;39.81;101624.22;1825516;78;21364;-76
2021/10/24 10:29:15;;;;;;;13.93;5.00;;;;;;;14.59;40.22;101623.19;1826127;78;21059;-76
2021/10/24 10:32:09;;;;;;;9.95;4.90;;;;;;;14.71;40.46;101631.66;1825869;78;20923;-77
2021/10/24 10:35:03;;;;;;;13.20;5.37;;;;;;;14.90;40.05;101624.79;1826677;78;21341;-79
2021/10/24 10:37:55;;;;;;;13.72;4.97;;;;;;;15.20;39.62;101622.48;1751931;80;21907;-79
2021/10/24 10:40:38;;;;;;;8.73;5.17;;;;;;;15.45;39.24;101619.14;1752525;80;20946;-77
2021/10/24 10:43:20;;;;;;;14.15;5.90;;;;;;;15.37;39.04;101623.22;1752589;80;20982;-75
2021/10/24 10:45:56;;;;;;;10.58;6.70;;;;;;;15.22;39.29;101625.03;1752254;80;21431;-77
2021/10/24 10:48:34;;;;;;;13.03;7.83;;;;;;;14.92;41.32;101620.27;1751959;80;20970;-76
2021/10/24 10:51:18;;;;;;;11.57;7.85;;;;;;;14.92;41.32;101620.27;1752365;80;21666;-76
2021/10/24 10:53:52;;;;;;;18.82;7.95;;;;;;;14.75;41.88;101632.81;1752004;80;20906;-75
2021/10/24 10:56:23;;;;;;;18.48;8.23;;;;;;;14.57;42.50;101631.67;1751899;80;20867;-78
2021/10/24 10:58:53;;;;;;;13.78;7.53;;;;;;;14.43;42.21;101630.31;1753932;80;20900;-83
2021/10/24 11:01:34;;;;;;;11.90;6.87;;;;;;;14.32;41.96;101624.36;1755363;80;20926;-76
2021/10/24 11:04:18;;;;;;;16.97;7.65;;;;;;;14.21;41.96;101632.06;1755344;80;21132;-76
2021/10/24 11:06:56;;;;;;;9.83;6.15;;;;;;;14.04;42.26;101622.01;1755088;80;20953;-76
2021/10/24 11:09:42;;;;;;;9.65;7.17;;;;;;;13.88;42.29;101624.69;1755170;81;20918;-76
2021/10/24 11:12:39;;;;;;;12.05;5.72;;;;;;;13.73;42.24;101627.37;1778097;78;20887;-77
2021/10/24 11:15:15;;;;;;;13.25;6.62;;;;;;;13.60;42.54;101631.16;1788286;79;20835;-79
2021/10/24 11:17:46;;;;;;;9.53;5.33;;;;;;;13.50;43.09;101637.91;1788103;78;21561;-75
2021/10/24 11:20:28;;;;;;;9.93;5.62;;;;;;;13.44;42.64;101641.72;1788126;80;20914;-76
2021/10/24 11:23:01;;;;;;;12.33;6.87;;;;;;;13.32;42.52;101639.30;1788029;79;20926;-75
2021/10/24 11:25:36;;;;;;;9.40;7.12;;;;;;;13.22;42.82;101632.80;1788492;79;21395;-76
2021/10/24 11:28:09;;;;;;;15.68;6.87;;;;;;;13.16;43.17;101630.48;1787979;78;20910;-74
2021/10/24 11:30:37;;;;;;;11.83;5.65;;;;;;;13.11;43.54;101636.48;1788155;78;21550;-82
2021/10/24 11:33:05;;;;;;;11.95;5.85;;;;;;;13.01;43.29;101636.98;1787839;78;20953;-81
2021/10/24 11:35:34;;;;;;;13.15;6.33;;;;;;;12.89;43.52;101634.15;1788772;78;20974;-75
2021/10/24 11:38:12;;;;;;;11.25;7.20;;;;;;;12.76;43.67;101642.72;1762291;80;20923;-75